createdAt,value
2023-03-22T00:01:43.133Z,67.95
2023-03-22T00:04:11.472Z,68.02
2023-03-22T00:06:39.360Z,68.00
2023-03-22T00:09:07.087Z,67.96
2023-03-22T00:11:34.821Z,68.16
2023-03-22T00:14:02.588Z,68.12
2023-03-22T00:16:30.558Z,68.13
2023-03-22T00:18:58.412Z,68.27
2023-03-22T00:21:26.202Z,68.20
2023-03-22T00:23:53.940Z,68.21
2023-03-22T00:26:21.811Z,68.22
2023-03-22T00:28:49.823Z,68.22
2023-03-22T00:31:17.857Z,68.09
2023-03-22T00:33:45.723Z,68.38
2023-03-22T00:36:13.853Z,68.50
2023-03-22T00:38:44.105Z,68.52
2023-03-22T00:41:16.129Z,68.64
2023-03-22T00:43:46.800Z,68.76
2023-03-22T00:46:15.507Z,68.76
2023-03-22T00:48:43.589Z,68.82
2023-03-22T00:51:11.930Z,68.71
2023-03-22T00:53:43.096Z,68.71
2023-03-22T00:56:15.900Z,68.87
2023-03-22T00:58:47.157Z,68.79
2023-03-22T01:01:15.345Z,68.95
2023-03-22T01:03:44.069Z,69.07
2023-03-22T01:06:15.500Z,69.05
2023-03-22T01:08:43.304Z,69.03
2023-03-22T01:11:11.225Z,68.96
2023-03-22T01:13:39.486Z,69.17
2023-03-22T01:16:08.413Z,69.14
2023-03-22T01:18:36.780Z,69.11
2023-03-22T01:21:05.199Z,69.17
2023-03-22T01:23:33.476Z,69.44
2023-03-22T01:26:01.611Z,69.62
2023-03-22T01:28:30.384Z,69.68
2023-03-22T01:31:01.869Z,69.83
2023-03-22T01:33:30.585Z,69.99
2023-03-22T01:35:58.797Z,70.10
2023-03-22T01:38:26.925Z,70.19
2023-03-22T01:40:57.881Z,70.23
2023-03-22T01:43:26.109Z,70.23
2023-03-22T01:45:55.329Z,70.48
2023-03-22T01:48:36.201Z,70.54
2023-03-22T01:51:09.846Z,70.87
2023-03-22T01:53:58.244Z,70.72
2023-03-22T01:56:28.814Z,70.76
2023-03-22T01:58:57.307Z,71.03
2023-03-22T02:01:31.977Z,71.04
2023-03-22T02:04:12.365Z,70.99
2023-03-22T02:06:41.080Z,70.98
2023-03-22T02:09:14.680Z,70.94
2023-03-22T02:11:44.453Z,71.12
2023-03-22T02:14:29.464Z,70.92
2023-03-22T02:18:07.168Z,70.70
2023-03-22T02:20:53.058Z,70.73
2023-03-22T02:23:46.797Z,70.73
2023-03-22T02:26:23.730Z,70.62
2023-03-22T02:28:54.531Z,70.53
2023-03-22T02:31:56.907Z,70.50
2023-03-22T02:34:36.468Z,70.43
2023-03-22T02:37:10.668Z,70.51
2023-03-22T02:39:48.009Z,70.30
2023-03-22T02:42:40.216Z,70.13
2023-03-22T02:45:11.442Z,70.15
2023-03-22T02:47:59.524Z,70.14
2023-03-22T02:50:52.390Z,69.86
2023-03-22T02:53:26.253Z,70.04
2023-03-22T02:56:03.967Z,70.04
2023-03-22T02:58:45.888Z,69.91
2023-03-22T03:01:20.090Z,70.09
2023-03-22T03:03:49.946Z,69.81
2023-03-22T03:06:20.469Z,69.86
2023-03-22T03:08:50.986Z,70.01
2023-03-22T03:11:20.114Z,70.00
2023-03-22T03:13:50.383Z,70.14
2023-03-22T03:16:21.255Z,70.03
2023-03-22T03:19:08.041Z,69.94
2023-03-22T03:22:00.212Z,70.20
2023-03-22T03:24:34.875Z,70.48
2023-03-22T03:27:20.192Z,70.47
2023-03-22T03:29:51.505Z,70.22
2023-03-22T03:32:35.367Z,70.38
2023-03-22T03:35:22.717Z,70.46
2023-03-22T03:37:59.034Z,70.25
2023-03-22T03:40:31.197Z,70.22
2023-03-22T03:42:59.943Z,70.29
2023-03-22T03:45:27.890Z,70.29
2023-03-22T03:48:00.884Z,70.37
2023-03-22T03:50:29.228Z,70.28
2023-03-22T03:52:57.982Z,70.50
2023-03-22T03:55:26.729Z,70.58
2023-03-22T03:57:54.552Z,70.52
2023-03-22T04:00:22.561Z,70.55
2023-03-22T04:03:10.232Z,70.38
2023-03-22T04:05:56.879Z,70.60
2023-03-22T04:08:25.325Z,70.71
2023-03-22T04:10:53.581Z,70.93
2023-03-22T04:13:21.697Z,71.11
2023-03-22T04:15:54.285Z,70.87
2023-03-22T04:18:22.074Z,70.93
2023-03-22T04:20:53.439Z,71.01
2023-03-22T04:23:23.218Z,71.03
2023-03-22T04:25:52.127Z,71.14
2023-03-22T04:28:30.024Z,71.22
2023-03-22T04:30:58.017Z,71.21
2023-03-22T04:33:49.923Z,71.41
2023-03-22T04:36:31.131Z,71.23
2023-03-22T04:39:13.461Z,71.23
2023-03-22T04:41:42.032Z,71.22
2023-03-22T04:44:09.885Z,71.22
2023-03-22T04:46:42.746Z,71.21
2023-03-22T04:49:11.201Z,71.04
2023-03-22T04:51:40.397Z,71.06
2023-03-22T04:54:20.387Z,71.22
2023-03-22T04:56:48.454Z,71.31
2023-03-22T04:59:20.491Z,71.33
2023-03-22T05:01:50.565Z,71.41
2023-03-22T05:04:22.409Z,71.38
2023-03-22T05:06:53.600Z,71.10
2023-03-22T05:09:26.236Z,71.10
2023-03-22T05:11:54.503Z,70.78
2023-03-22T05:14:33.601Z,70.86
2023-03-22T05:17:01.785Z,71.00
2023-03-22T05:19:29.895Z,71.25
2023-03-22T05:21:58.533Z,71.92
2023-03-22T05:24:36.022Z,72.20
2023-03-22T05:27:04.200Z,72.23
2023-03-22T05:29:36.998Z,72.11
2023-03-22T05:32:12.058Z,72.16
2023-03-22T05:34:42.867Z,71.88
2023-03-22T05:37:23.633Z,71.54
2023-03-22T05:39:54.688Z,71.60
2023-03-22T05:42:26.563Z,71.78
2023-03-22T05:44:54.576Z,71.86
2023-03-22T05:47:22.643Z,72.00
2023-03-22T05:50:08.874Z,71.90
2023-03-22T05:52:37.119Z,71.80
2023-03-22T05:55:34.259Z,71.67
2023-03-22T05:58:05.103Z,71.46
2023-03-22T06:00:34.073Z,71.24
2023-03-22T06:03:20.668Z,70.87
2023-03-22T06:05:59.121Z,71.05
2023-03-22T06:08:49.911Z,71.07
2023-03-22T06:11:19.355Z,71.09
2023-03-22T06:13:47.566Z,70.92
2023-03-22T06:16:16.493Z,70.88
2023-03-22T06:18:44.655Z,70.62
2023-03-22T06:21:13.380Z,70.26
2023-03-22T06:23:43.596Z,70.01
2023-03-22T06:26:12.024Z,69.57
2023-03-22T06:28:40.898Z,69.56
2023-03-22T06:31:10.791Z,69.36
2023-03-22T06:33:50.313Z,68.99
2023-03-22T06:36:36.864Z,68.65
2023-03-22T06:39:12.133Z,68.63
2023-03-22T06:41:44.321Z,68.60
2023-03-22T06:44:13.058Z,68.76
2023-03-22T06:47:04.976Z,68.95
2023-03-22T06:49:42.845Z,68.79
2023-03-22T06:52:18.144Z,68.71
2023-03-22T06:54:45.985Z,68.71
2023-03-22T06:57:13.917Z,68.57
2023-03-22T06:59:41.737Z,68.49
2023-03-22T07:02:12.358Z,68.68
2023-03-22T07:04:41.851Z,68.85
2023-03-22T07:07:09.768Z,68.65
2023-03-22T07:09:39.356Z,68.52
2023-03-22T07:12:07.297Z,68.36
2023-03-22T07:14:35.579Z,68.27
2023-03-22T07:17:21.735Z,68.13
2023-03-22T07:19:49.773Z,68.11
2023-03-22T07:22:17.885Z,68.42
2023-03-22T07:24:56.251Z,68.34
2023-03-22T07:27:26.337Z,68.73
2023-03-22T07:29:54.597Z,68.73
2023-03-22T07:32:23.248Z,68.79
2023-03-22T07:35:00.803Z,68.46
2023-03-22T07:37:29.793Z,67.95
2023-03-22T07:39:57.610Z,68.01
2023-03-22T07:42:28.474Z,67.77
2023-03-22T07:45:28.974Z,67.91
2023-03-22T07:48:15.895Z,68.00
2023-03-22T07:50:59.313Z,68.06
2023-03-22T07:53:28.072Z,67.82
2023-03-22T07:55:56.159Z,66.99
2023-03-22T07:58:23.974Z,66.80
2023-03-22T08:00:52.548Z,66.35
2023-03-22T08:03:40.591Z,66.08
2023-03-22T08:06:37.038Z,65.35
2023-03-22T08:09:05.081Z,65.20
2023-03-22T08:11:32.892Z,64.85
2023-03-22T08:14:01.170Z,64.26
2023-03-22T08:16:29.466Z,63.64
2023-03-22T08:18:58.532Z,63.93
2023-03-22T08:21:27.696Z,63.41
2023-03-22T08:23:56.584Z,62.86
2023-03-22T08:26:42.867Z,62.71
2023-03-22T08:29:16.740Z,61.97
2023-03-22T08:31:47.657Z,61.44
2023-03-22T08:34:15.761Z,61.01
2023-03-22T08:36:43.656Z,59.94
2023-03-22T08:39:11.806Z,58.37
2023-03-22T08:42:05.554Z,57.93
2023-03-22T08:44:33.601Z,58.12
2023-03-22T08:47:03.138Z,58.59
2023-03-22T08:49:31.596Z,58.21
2023-03-22T08:52:07.538Z,56.30
2023-03-22T08:54:59.414Z,55.81
2023-03-22T08:57:50.320Z,54.26
2023-03-22T14:02:40.121Z,36.41
2023-03-22T14:05:12.096Z,36.20
2023-03-22T14:07:53.826Z,35.34
2023-03-22T14:10:37.061Z,33.65
2023-03-22T14:13:32.567Z,33.04
2023-03-22T14:16:21.847Z,32.98
2023-03-22T14:18:50.965Z,31.79
2023-03-22T14:21:24.569Z,31.64
